LFBP 181530Z AUTO 26015KT 9999 -RA BKN017/// BKN025/// BKN044/// ///CB 21/17 Q1019 TEMPO 4000 SHRA

ElémentsDécodage
LFBP Station météo située sur l'aérodrome de PAU Pyrénées
181530Z émis le 18 du mois à 15h30 UTC
AUTO Bulletin édité par un automate
26015KT vent du 260°, 15 noeuds
9999 visibilité horizontale supérieure à 10 Km
-RA faible pluie
BKN017/// nuages morcelés (5/8 à 7/8) à 1700 pieds
 type de nuage non observable
BKN025/// nuages morcelés (5/8 à 7/8) à 2500 pieds
 type de nuage non observable
BKN044/// nuages morcelés (5/8 à 7/8) à 4400 pieds
 type de nuage non observable
///CB élement non décodé
21/17 température 21°C, point de rosée 17°C
 soit une humidité relative de 78%
Q1019 la pression au niveau de la mer (QNH) est de 1019 hPa
TEMPO fluctuation temporaire prévue
4000 visibilité horizontale de 4000 mètres
SHRA averse(s) de pluie